LSZHLIBD

Guest
Details From LSZH - Zurich
To LIBD - Bari Palese Macchie
Flight Number -
Tags decoded
Created
Modified
Stats Distance 534 nm / 990 km
Max Altitude 0 ft / 0 m
Waypoints 14
Social Downloads 0
Likes 0
Share VATSIM

Download

Looking for another format? Having issues loading an existing format? Contact us
Advertisement - Login to hide

Notes

Requested: LSZH DEGES Z2 XEBIX UL607 ELMEM UN606 BZO UZ906 CHI UL612 VIE LIBD Unmatched points: XEBIX UL607 ELMEM UN606

Route

LSZH DEGES BZO UZ906 CHI UL612 VIE LIBD

ID Type Via Altitude Latitude Longitude Leg Dist Tot Dist Heading (true) Name
O LSZH APT - 0 ft / 0 m 47.46349˚ 8.54996˚ - 0 nm - Zurich
DEGES FIX - 0 ft / 0 m 47.41250˚ 9.20194˚ 26 nm 26 nm 96° / 97° -
BZO NDB - 0 ft / 0 m 46.46389˚ 11.32222˚ 103 nm 130 nm 122° / 124° BOLZANO NDB
ROKIB FIX UZ906 (AWY-HI) 0 ft / 0 m 45.93556˚ 11.69222˚ 35 nm 165 nm 154° / 154° -
LAPAB FIX UZ906 (AWY-HI) 0 ft / 0 m 45.52944˚ 11.97167˚ 27 nm 192 nm 154° / 154° -
CHI NDB UZ906 (AWY-HI) 0 ft / 0 m 45.07167˚ 12.28139˚ 30 nm 223 nm 154° / 155° CHIOGGIA NDB
AMLON FIX UL612 (AWY-HI) 0 ft / 0 m 44.33917˚ 12.87639˚ 50 nm 274 nm 150° / 150° -
LANLI FIX UL612 (AWY-HI) 0 ft / 0 m 43.95722˚ 13.18056˚ 26 nm 300 nm 150° / 150° -
ANC VOR UL612 (AWY-HI) 0 ft / 0 m 43.58639˚ 13.47111˚ 25 nm 326 nm 150° / 151° ANCONA VOR-DME
NUTRO FIX UL612 (AWY-HI) 0 ft / 0 m 43.16000˚ 14.14917˚ 39 nm 365 nm 131° / 131° -
ARPIK FIX UL612 (AWY-HI) 0 ft / 0 m 42.74694˚ 14.79222˚ 37 nm 402 nm 131° / 131° -
POLYP FIX UL612 (AWY-HI) 0 ft / 0 m 42.47833˚ 15.20250˚ 24 nm 427 nm 132° / 132° -
VIE VOR UL612 (AWY-HI) 0 ft / 0 m 41.91274˚ 16.04914˚ 50 nm 477 nm 132° / 132° VIESTE VOR-DME
O LIBD APT - 0 ft / 0 m 41.13787˚ 16.75832˚ 56 nm 534 nm 145° / 146° Bari Palese Macchie

Altitude Profile

Advertisement - Login to hide

Weather


0- 5 10 15 20 25 30 35+ Temperature / ° C

Clouds and Precipitation
Forecast for 2017-12-13 00:00 UTC. Updated 43 minutes ago

Ground ~20,000 ft ~40,000 ft Winds

LSZH

Details ICAO LSZH (ZRH)
Name Zurich
Region Switzerland
Timezone Europe/Zurich (UTC+1.0)
Stats Elevation 1,416 ft / 432 m (AMSL)
Location 47.463489° 8.549964°
Runways 3
Magnetic Variation 2.345° E

METAR

LSZH 122150Z 21003KT 8000 MIFG NSC M02/M02 Q1019 NOSIG

Decode

TAF

TAF AMD LSZH 122117Z 1221/1403 VRB03KT CAVOK TX04/1314Z TNM03/1306Z BECMG 1221/1301 3000 MIFG NSC PROB40 TEMPO 1303/1309 0300 FZFG VV001 BECMG 1307/1309 CAVOK BECMG 1311/1314 23006KT 9999 SCT025 BKN035 TEMPO 1314/1403 5000 -SHRA BKN013

Decode

Departure Runways

ID Width Length Bearing (true) Bearing (mag) Surface Threshold Offset Overrun Length
10 197 ft / 60 m 8,180 ft / 2,493 m 95.98° 93.63° Concrete 0 ft / 0 m 197 ft / 60 m
14 197 ft / 60 m 10,816 ft / 3,297 m 137.30° 134.95° Concrete 492 ft / 150 m 0 ft / 0 m
16 197 ft / 60 m 12,137 ft / 3,699 m 155.00° 152.65° Concrete 0 ft / 0 m 197 ft / 60 m
28 197 ft / 60 m 8,180 ft / 2,493 m 276.01° 273.66° Concrete 0 ft / 0 m 197 ft / 60 m
32 197 ft / 60 m 10,816 ft / 3,297 m 317.32° 314.97° Concrete 0 ft / 0 m 197 ft / 60 m
34 197 ft / 60 m 12,137 ft / 3,699 m 335.01° 332.66° Concrete 1,542 ft / 470 m 0 ft / 0 m

LIBD

Details ICAO LIBD (BRI)
Name Bari Palese Macchie
Region Italy
Timezone Europe/Rome (UTC+1.0)
Stats Elevation 177 ft / 54 m (AMSL)
Location 41.137865° 16.758318°
Runways 1
Magnetic Variation 3.737° E

METAR

LIBD 122150Z 21006KT 180V240 CAVOK 12/07 Q1018

Decode

TAF

TAF LIBD 121700Z 1218/1318 18008KT 9999 SCT030 TEMPO 1309/1316 RA= TAF LIBP 121700Z 1218/1318 VRB06KT 9999 SCT030 TEMPO 1300/1309 4000 RA TEMPO 1309/1315 SHRA

Decode

Destination Runways

ID Width Length Bearing (true) Bearing (mag) Surface Threshold Offset Overrun Length
07 148 ft / 45 m 9,262 ft / 2,823 m 69.39° 65.65° Asphalt 1,257 ft / 383 m 0 ft / 0 m
25 148 ft / 45 m 9,262 ft / 2,823 m 249.42° 245.68° Asphalt 0 ft / 0 m 194 ft / 59 m

Approach Navaids

Runway Type Ident Frequency Range Bearing (true) Bearing (mag) Slope Elevation
07 Localiser BAP 111.35 MHz 18 nm / 33 km 69.25° 65.51° - 177 ft / 54 m (AMSL)
07 Glidescope BAP 111.35 MHz 10 nm / 19 km 69.25° 65.51° 3.32° 177 ft / 54 m (AMSL)
07 DME BAP 111.35 MHz 18 nm / 33 km - - - 183 ft / 56 m (AMSL)

Popular Alternatives